Time;durP1;ratioP1;P1;durP2;ratioP2;P2;SDS_P1;SDS_P2;PMS_P1;PMS_P2;Temp;Humidity;BMP_temperature;BMP_pressure;BME280_temperature;BME280_humidity;BME280_pressure;Samples;Min_cycle;Max_cycle;Signal;HPM_P1;HPM_P2
2022/11/22 00:00:52;;;;;;;20.48;7.35;;;;;;;5.52;100.00;99148.97;4990541;28;20027;-81
2022/11/22 00:03:18;;;;;;;24.45;7.25;;;;;;;5.49;100.00;99147.31;4990660;28;20023;-81
2022/11/22 00:05:43;;;;;;;15.70;6.85;;;;;;;5.51;100.00;99157.56;5004081;28;20042;-81
2022/11/22 00:08:09;;;;;;;19.58;7.70;;;;;;;5.53;100.00;99153.19;5011091;28;20084;-81
2022/11/22 00:10:34;;;;;;;21.13;6.93;;;;;;;5.53;100.00;99154.03;5011709;28;20037;-81
2022/11/22 00:13:00;;;;;;;20.50;7.35;;;;;;;5.59;100.00;99158.16;5011708;28;20030;-81
2022/11/22 00:15:25;;;;;;;20.40;7.00;;;;;;;5.61;100.00;99156.38;5009447;28;20021;-81
2022/11/22 00:17:50;;;;;;;18.23;6.82;;;;;;;5.64;100.00;99158.84;4994040;28;20042;-81
2022/11/22 00:20:16;;;;;;;19.35;7.20;;;;;;;5.65;100.00;99152.84;5011814;28;20022;-81
2022/11/22 00:22:42;;;;;;;20.35;7.30;;;;;;;5.67;100.00;99153.59;5009713;28;20438;-81
2022/11/22 00:25:08;;;;;;;23.17;7.00;;;;;;;5.69;100.00;99154.41;5011636;28;20022;-81
2022/11/22 00:27:33;;;;;;;20.35;7.32;;;;;;;5.72;100.00;99153.47;5011650;28;20037;-81
2022/11/22 00:29:59;;;;;;;25.95;7.40;;;;;;;5.71;100.00;99151.78;5006607;28;20030;-81
2022/11/22 00:32:24;;;;;;;21.98;7.75;;;;;;;5.69;100.00;99145.84;5011200;28;20088;-81
2022/11/22 00:34:49;;;;;;;22.23;7.30;;;;;;;5.67;100.00;99150.19;5011536;28;20080;-81
2022/11/22 00:37:14;;;;;;;19.88;6.93;;;;;;;5.64;100.00;99143.44;5010863;28;20029;-81
2022/11/22 00:39:40;;;;;;;16.42;6.65;;;;;;;5.61;100.00;99146.09;5010580;28;20068;-81
2022/11/22 00:42:06;;;;;;;18.17;7.15;;;;;;;5.64;100.00;99150.31;5010831;28;20125;-81
2022/11/22 00:44:32;;;;;;;23.25;7.53;;;;;;;5.64;100.00;99150.31;5010080;28;20424;-81
2022/11/22 00:46:57;;;;;;;18.55;7.18;;;;;;;5.64;100.00;99156.28;5011235;28;20544;-81
2022/11/22 00:49:22;;;;;;;18.70;6.75;;;;;;;5.59;100.00;99144.47;5006973;28;20029;-81
2022/11/22 00:51:48;;;;;;;22.88;6.65;;;;;;;5.59;100.00;99149.63;4989714;28;20019;-81
2022/11/22 00:54:13;;;;;;;17.38;6.45;;;;;;;5.57;100.00;99159.94;5007395;28;20037;-81
2022/11/22 00:56:38;;;;;;;18.83;6.60;;;;;;;5.59;100.00;99152.19;5010713;28;20068;-81
2022/11/22 00:59:03;;;;;;;16.23;7.13;;;;;;;5.61;100.00;99158.09;5009707;28;20459;-82
2022/11/22 01:01:29;;;;;;;16.95;6.75;;;;;;;5.56;100.00;99147.97;5010980;28;20052;-81
2022/11/22 01:03:54;;;;;;;16.40;6.63;;;;;;;5.54;100.00;99148.00;5009140;28;20071;-81
2022/11/22 01:06:19;;;;;;;16.27;6.35;;;;;;;5.49;100.00;99131.06;5009995;28;20049;-81
2022/11/22 01:08:45;;;;;;;19.33;6.10;;;;;;;5.45;100.00;99140.59;5009922;28;20500;-81
2022/11/22 01:11:10;;;;;;;15.27;6.70;;;;;;;5.39;100.00;99143.31;5009537;28;20580;-81
2022/11/22 01:13:36;;;;;;;18.65;6.47;;;;;;;5.36;100.00;99143.44;5010691;28;20377;-81
2022/11/22 01:16:04;;;;;;;16.48;6.30;;;;;;;5.35;100.00;99151.19;5009674;28;20041;-81
2022/11/22 01:18:30;;;;;;;14.02;6.00;;;;;;;5.30;100.00;99148.75;5009961;28;20087;-81
2022/11/22 01:20:55;;;;;;;14.82;6.15;;;;;;;5.27;100.00;99153.97;5010760;28;20026;-81
2022/11/22 01:23:21;;;;;;;14.88;6.00;;;;;;;5.24;100.00;99150.66;5008941;28;20042;-81
2022/11/22 01:25:46;;;;;;;18.92;5.93;;;;;;;5.20;100.00;99159.31;5010151;28;20101;-82
2022/11/22 01:28:11;;;;;;;15.73;5.70;;;;;;;5.12;100.00;99152.69;5009605;28;20163;-81
2022/11/22 01:30:37;;;;;;;15.15;5.68;;;;;;;5.11;100.00;99153.59;5010707;28;20068;-81
2022/11/22 01:33:02;;;;;;;12.13;5.07;;;;;;;5.08;100.00;99156.25;5010627;28;20022;-81
2022/11/22 01:35:27;;;;;;;11.82;5.13;;;;;;;5.07;100.00;99149.41;5010458;28;20030;-81
2022/11/22 01:37:53;;;;;;;10.68;5.57;;;;;;;5.03;100.00;99154.69;4998981;28;20037;-81
2022/11/22 01:40:18;;;;;;;15.57;5.15;;;;;;;4.99;100.00;99150.50;5009659;28;20527;-80
2022/11/22 01:42:55;;;;;;;12.13;5.20;;;;;;;4.96;100.00;99163.44;4992346;28;20077;-81
2022/11/22 01:45:30;;;;;;;14.15;5.15;;;;;;;4.93;100.00;99164.38;5010590;28;20026;-80
2022/11/22 01:48:12;;;;;;;12.82;5.15;;;;;;;4.91;100.00;99167.88;5010567;28;20072;-80
2022/11/22 01:50:42;;;;;;;13.93;4.90;;;;;;;4.88;100.00;99166.22;5010411;28;20531;-80
2022/11/22 01:53:14;;;;;;;13.68;5.15;;;;;;;4.88;100.00;99170.50;5010200;28;20017;-81
2022/11/22 01:55:40;;;;;;;8.93;4.45;;;;;;;4.86;100.00;99169.72;5009690;28;20033;-81
2022/11/22 01:58:08;;;;;;;13.02;4.68;;;;;;;4.85;100.00;99178.28;4992040;28;20042;-81
2022/11/22 02:00:35;;;;;;;14.02;4.40;;;;;;;4.84;100.00;99182.59;5010554;28;20018;-81
2022/11/22 02:03:03;;;;;;;15.65;4.50;;;;;;;4.83;100.00;99180.06;5009707;28;20117;-81
2022/11/22 02:05:31;;;;;;;11.35;4.13;;;;;;;4.83;100.00;99190.34;5010151;28;20064;-81
2022/11/22 02:08:10;;;;;;;11.35;4.07;;;;;;;4.81;100.00;99192.94;5010134;28;20026;-81
2022/11/22 02:10:42;;;;;;;12.20;4.22;;;;;;;4.82;100.00;99186.94;5008569;28;20109;-80
2022/11/22 02:13:09;;;;;;;17.27;4.80;;;;;;;4.79;100.00;99181.88;5010373;28;20231;-81
2022/11/22 02:15:34;;;;;;;12.68;3.97;;;;;;;4.78;100.00;99188.72;4991221;28;20041;-81
2022/11/22 02:18:00;;;;;;;17.33;4.10;;;;;;;4.76;100.00;99193.06;5009042;28;20026;-81
2022/11/22 02:20:25;;;;;;;15.18;4.00;;;;;;;4.76;100.00;99194.81;5009314;28;20030;-81
2022/11/22 02:23:00;;;;;;;19.13;3.70;;;;;;;4.78;100.00;99190.44;5008588;28;20083;-81
2022/11/22 02:25:40;;;;;;;21.05;4.03;;;;;;;4.81;100.00;99195.50;5009547;28;20060;-81
2022/11/22 02:28:11;;;;;;;18.25;3.45;;;;;;;4.81;100.00;99198.06;5006904;28;20053;-80
2022/11/22 02:30:38;;;;;;;11.88;3.50;;;;;;;4.81;100.00;99187.81;5009082;28;20124;-80
2022/11/22 02:33:04;;;;;;;12.23;3.55;;;;;;;4.78;100.00;99193.00;5007353;28;20080;-80
2022/11/22 02:35:30;;;;;;;10.85;3.67;;;;;;;4.75;100.00;99199.09;5010193;28;20029;-80
2022/11/22 02:37:58;;;;;;;13.98;3.97;;;;;;;4.73;100.00;99198.28;5013005;28;20030;-80
2022/11/22 02:40:26;;;;;;;13.85;3.50;;;;;;;4.71;100.00;99196.63;5013436;28;20440;-80
2022/11/22 02:43:00;;;;;;;19.95;3.42;;;;;;;4.69;100.00;99194.13;5012602;28;20068;-80
2022/11/22 02:45:26;;;;;;;17.27;3.50;;;;;;;4.67;100.00;99200.16;5013028;28;20563;-80
2022/11/22 02:47:51;;;;;;;19.08;3.60;;;;;;;4.67;100.00;99198.44;5011967;28;20129;-81
2022/11/22 02:50:16;;;;;;;18.35;3.72;;;;;;;4.67;100.00;99205.28;4995831;28;20021;-80
2022/11/22 02:52:41;;;;;;;17.98;3.40;;;;;;;4.67;100.00;99210.44;4994968;28;20484;-80
2022/11/22 02:55:07;;;;;;;14.90;3.58;;;;;;;4.66;100.00;99211.31;5013387;28;20021;-80
2022/11/22 02:57:33;;;;;;;18.00;3.88;;;;;;;4.65;100.00;99210.47;5013048;28;20025;-80
2022/11/22 02:59:58;;;;;;;13.73;3.40;;;;;;;4.62;100.00;99205.44;5013079;28;20084;-80
2022/11/22 03:02:23;;;;;;;14.95;4.00;;;;;;;4.63;100.00;99208.84;5010793;28;20017;-80
2022/11/22 03:04:48;;;;;;;22.23;3.70;;;;;;;4.61;100.00;99220.84;5012378;28;20109;-80
2022/11/22 03:07:15;;;;;;;18.52;4.28;;;;;;;4.58;100.00;99219.19;5013033;28;20546;-80
2022/11/22 03:09:41;;;;;;;17.70;3.58;;;;;;;4.57;100.00;99220.06;5012276;28;20029;-80
2022/11/22 03:12:06;;;;;;;20.40;3.28;;;;;;;4.55;100.00;99213.31;5012993;28;20026;-80
2022/11/22 03:14:31;;;;;;;17.73;3.15;;;;;;;4.52;100.00;99215.94;5011367;28;20040;-80
2022/11/22 03:16:57;;;;;;;21.65;3.33;;;;;;;4.51;100.00;99230.50;5012321;28;20034;-80
2022/11/22 03:19:22;;;;;;;17.60;3.25;;;;;;;4.48;100.00;99222.91;5010945;28;20491;-80
2022/11/22 03:21:48;;;;;;;14.65;2.97;;;;;;;4.44;100.00;99225.56;5012083;28;20164;-80
2022/11/22 03:24:13;;;;;;;22.50;3.47;;;;;;;4.37;100.00;99228.28;5012729;28;20091;-80
2022/11/22 03:26:39;;;;;;;13.60;2.88;;;;;;;4.32;100.00;99230.13;5012876;28;20184;-80
2022/11/22 03:29:04;;;;;;;16.25;2.95;;;;;;;4.29;100.00;99230.22;5012579;28;20026;-80
2022/11/22 03:31:29;;;;;;;15.65;3.13;;;;;;;4.26;100.00;99239.69;4996366;28;20050;-80
2022/11/22 03:33:55;;;;;;;16.02;3.13;;;;;;;4.22;100.00;99231.22;5011242;28;20034;-80
2022/11/22 03:36:21;;;;;;;13.07;2.90;;;;;;;4.18;100.00;99241.56;5012058;28;20018;-80
2022/11/22 03:38:46;;;;;;;10.57;2.72;;;;;;;4.18;100.00;99239.00;5011474;28;20506;-80
2022/11/22 03:41:12;;;;;;;17.95;3.40;;;;;;;4.16;100.00;99244.16;5010822;28;20036;-80
2022/11/22 03:43:37;;;;;;;20.50;3.25;;;;;;;4.13;100.00;99243.41;5012752;28;20021;-80
2022/11/22 03:46:03;;;;;;;19.95;2.95;;;;;;;4.10;100.00;99243.47;5007960;28;20535;-80
2022/11/22 03:48:29;;;;;;;12.15;3.22;;;;;;;4.07;100.00;99241.84;5012235;28;20029;-80
2022/11/22 03:51:02;;;;;;;15.10;2.90;;;;;;;4.00;100.00;99239.44;5011440;28;20041;-80
2022/11/22 03:53:27;;;;;;;11.93;3.03;;;;;;;3.98;100.00;99245.44;5012184;28;20530;-80
2022/11/22 03:55:53;;;;;;;9.90;2.85;;;;;;;3.90;100.00;99247.34;5011308;28;20289;-80
2022/11/22 03:58:18;;;;;;;8.73;2.08;;;;;;;3.89;100.00;99249.97;5012097;28;20455;-80
2022/11/22 04:00:43;;;;;;;13.77;3.20;;;;;;;3.82;100.00;99253.53;5012132;28;20030;-80
2022/11/22 04:03:09;;;;;;;10.60;2.42;;;;;;;3.77;100.00;99250.22;5010972;28;20042;-80
2022/11/22 04:05:34;;;;;;;18.30;3.00;;;;;;;3.71;100.00;99256.31;4993968;28;20127;-80
2022/11/22 04:07:59;;;;;;;7.45;2.55;;;;;;;3.69;100.00;99254.66;5011685;28;20482;-80
2022/11/22 04:10:25;;;;;;;14.32;2.25;;;;;;;3.62;100.00;99253.94;5009525;28;20101;-81
2022/11/22 04:12:50;;;;;;;15.57;3.10;;;;;;;3.56;100.00;99244.66;5010947;28;20083;-81
2022/11/22 04:15:16;;;;;;;12.85;2.30;;;;;;;3.56;100.00;99254.91;4992761;28;20412;-81
2022/11/22 04:17:44;;;;;;;18.77;2.33;;;;;;;3.50;100.00;99249.06;5009904;28;20033;-81
2022/11/22 04:23:08;;;;;;;15.02;2.40;;;;;;;3.42;100.00;99254.34;5011671;28;20523;-81
2022/11/22 04:25:36;;;;;;;14.60;2.63;;;;;;;3.36;100.00;99258.75;5010880;28;20554;-81
2022/11/22 04:28:03;;;;;;;17.48;2.25;;;;;;;3.33;100.00;99259.69;5011773;28;20121;-81
2022/11/22 04:33:14;;;;;;;14.50;2.60;;;;;;;3.31;100.00;99265.69;5010225;28;20037;-81
2022/11/22 04:35:41;;;;;;;11.18;2.58;;;;;;;3.28;100.00;99278.53;5011427;28;20058;-81
2022/11/22 04:38:06;;;;;;;12.75;2.30;;;;;;;3.26;100.00;99277.75;5010400;28;20471;-81
2022/11/22 04:40:32;;;;;;;14.60;2.65;;;;;;;3.25;100.00;99271.78;5009289;28;20543;-81
2022/11/22 04:45:42;;;;;;;11.13;2.17;;;;;;;3.23;100.00;99273.53;5000571;28;20044;-81
2022/11/22 04:48:07;;;;;;;16.25;2.67;;;;;;;3.16;100.00;99270.25;5010358;28;20029;-81
2022/11/22 04:53:17;;;;;;;15.77;2.43;;;;;;;3.11;100.00;99276.31;5010967;28;20092;-81
2022/11/22 04:55:45;;;;;;;10.15;2.05;;;;;;;3.08;100.00;99286.59;5010375;28;20289;-81
2022/11/22 04:58:11;;;;;;;12.75;2.50;;;;;;;3.06;100.00;99286.66;5009883;28;20246;-81
2022/11/22 05:00:37;;;;;;;13.48;2.53;;;;;;;3.01;100.00;99283.31;4992166;28;20492;-81
2022/11/22 05:03:03;;;;;;;16.42;2.72;;;;;;;3.00;100.00;99281.63;5010145;28;20053;-81
2022/11/22 05:05:29;;;;;;;14.25;2.35;;;;;;;2.97;100.00;99281.69;4993379;28;20404;-81
2022/11/22 05:07:56;;;;;;;14.48;2.40;;;;;;;2.96;100.00;99279.16;5011200;28;20022;-81
2022/11/22 05:10:21;;;;;;;17.85;2.30;;;;;;;2.94;100.00;99281.72;5008538;28;20026;-80
2022/11/22 05:12:47;;;;;;;12.45;2.55;;;;;;;2.94;100.00;99289.41;5010344;28;20030;-80
2022/11/22 05:15:12;;;;;;;15.07;2.35;;;;;;;2.94;100.00;99288.56;5010273;28;20061;-80
2022/11/22 05:17:38;;;;;;;6.10;1.83;;;;;;;2.91;100.00;99297.16;5010613;28;20026;-80
2022/11/22 05:20:04;;;;;;;17.88;2.20;;;;;;;2.87;100.00;99292.94;5010610;28;20081;-81
2022/11/22 05:25:13;;;;;;;14.90;2.42;;;;;;;2.84;100.00;99297.28;5010493;28;20464;-80
2022/11/22 05:27:39;;;;;;;12.50;2.35;;;;;;;2.83;100.00;99300.72;5008210;28;20481;-80
2022/11/22 05:30:05;;;;;;;11.10;2.38;;;;;;;2.80;100.00;99296.50;5009091;28;20088;-81
2022/11/22 05:32:32;;;;;;;10.38;2.30;;;;;;;2.77;100.00;99291.44;5005297;28;20567;-80
2022/11/22 05:34:57;;;;;;;9.48;2.30;;;;;;;2.75;100.00;99295.72;5003076;28;20050;-80
2022/11/22 05:37:23;;;;;;;14.35;2.55;;;;;;;2.70;100.00;99295.81;5004687;28;20057;-80
2022/11/22 05:39:49;;;;;;;10.95;2.20;;;;;;;2.68;100.00;99300.09;5004747;28;20156;-81
2022/11/22 05:42:14;;;;;;;14.30;2.35;;;;;;;2.65;100.00;99296.78;5001506;28;20101;-81
2022/11/22 05:44:39;;;;;;;11.48;2.10;;;;;;;2.63;100.00;99295.94;5004693;28;20022;-81
2022/11/22 05:47:04;;;;;;;14.50;2.10;;;;;;;2.62;100.00;99295.09;5000552;28;20022;-81
2022/11/22 05:49:30;;;;;;;14.07;2.03;;;;;;;2.61;100.00;99295.97;5002051;28;20484;-81
2022/11/22 05:51:56;;;;;;;7.97;2.00;;;;;;;2.56;100.00;99295.19;4998306;28;20532;-81
2022/11/22 05:54:21;;;;;;;15.65;2.40;;;;;;;2.54;100.00;99296.94;5007304;28;20555;-81
2022/11/22 05:56:47;;;;;;;10.43;2.00;;;;;;;2.51;100.00;99293.59;5009435;28;20067;-81
2022/11/22 05:59:13;;;;;;;18.50;2.50;;;;;;;2.49;100.00;99293.59;5007691;28;20033;-81
2022/11/22 06:01:38;;;;;;;19.40;2.97;;;;;;;2.45;100.00;99291.13;4993124;28;20022;-81
2022/11/22 06:04:04;;;;;;;7.50;2.40;;;;;;;2.42;100.00;99299.69;5010362;28;20050;-81
2022/11/22 06:06:29;;;;;;;8.43;2.13;;;;;;;2.41;100.00;99295.44;5009296;28;20074;-81
2022/11/22 06:08:54;;;;;;;11.10;2.40;;;;;;;2.37;100.00;99304.88;5009587;28;20045;-81
2022/11/22 06:11:22;;;;;;;15.38;2.13;;;;;;;2.36;100.00;99292.97;5011369;28;20029;-81
2022/11/22 06:13:53;;;;;;;10.50;2.40;;;;;;;2.36;100.00;99290.41;5014509;28;20041;-82
2022/11/22 06:16:19;;;;;;;18.58;2.95;;;;;;;2.37;100.00;99289.53;5013496;28;20496;-82
2022/11/22 06:18:45;;;;;;;13.65;2.38;;;;;;;2.38;100.00;99296.34;5013143;28;20033;-81
2022/11/22 06:21:13;;;;;;;17.10;2.65;;;;;;;2.39;100.00;99295.47;5013263;28;20067;-81
2022/11/22 06:23:38;;;;;;;9.43;2.58;;;;;;;2.36;100.00;99292.97;5013735;28;20471;-80
2022/11/22 06:26:06;;;;;;;13.77;2.40;;;;;;;2.36;100.00;99305.75;5012322;28;20499;-81
2022/11/22 06:28:34;;;;;;;11.05;2.60;;;;;;;2.35;100.00;99306.59;5012847;28;20034;-81
2022/11/22 06:31:10;;;;;;;16.00;2.35;;;;;;;2.33;100.00;99297.25;5013177;28;20057;-81
2022/11/22 06:33:36;;;;;;;13.45;2.88;;;;;;;2.29;100.00;99298.19;5012920;28;20029;-81
2022/11/22 06:36:07;;;;;;;12.40;2.72;;;;;;;2.27;100.00;99297.34;5013823;28;20064;-80
2022/11/22 06:38:33;;;;;;;9.55;2.45;;;;;;;2.27;100.00;99298.19;5012651;28;20097;-80
2022/11/22 06:41:03;;;;;;;17.85;2.85;;;;;;;2.24;100.00;99293.16;4995083;28;20118;-80
2022/11/22 06:43:29;;;;;;;15.20;2.88;;;;;;;2.28;100.00;99297.34;5012504;28;20032;-80
2022/11/22 06:45:56;;;;;;;14.48;2.72;;;;;;;2.28;100.00;99296.50;5011950;28;20069;-80
2022/11/22 06:48:22;;;;;;;16.00;2.70;;;;;;;2.26;100.00;99301.63;5009812;28;20033;-83
2022/11/22 06:50:47;;;;;;;14.20;2.55;;;;;;;2.21;100.00;99293.19;5012784;28;20040;-81
2022/11/22 06:53:14;;;;;;;11.85;2.42;;;;;;;2.21;100.00;99308.53;5013021;28;20026;-81
2022/11/22 06:55:39;;;;;;;12.30;2.63;;;;;;;2.20;100.00;99314.50;5012968;28;20032;-81
2022/11/22 06:58:04;;;;;;;8.43;2.92;;;;;;;2.16;100.00;99317.97;5011503;28;20026;-81
2022/11/22 07:00:29;;;;;;;16.17;2.70;;;;;;;2.16;100.00;99323.09;5013013;28;20014;-82
2022/11/22 07:02:55;;;;;;;13.60;2.47;;;;;;;2.18;100.00;99323.06;5009602;28;20038;-81
2022/11/22 07:05:20;;;;;;;9.82;2.38;;;;;;;2.24;100.00;99317.88;5011715;28;20062;-82
2022/11/22 07:07:45;;;;;;;16.25;3.28;;;;;;;2.28;100.00;99325.47;5013065;28;21030;-81
2022/11/22 07:10:11;;;;;;;16.80;2.80;;;;;;;2.36;100.00;99328.75;5011957;28;20025;-82
2022/11/22 07:12:36;;;;;;;15.90;2.70;;;;;;;2.45;100.00;99332.03;5012248;28;20029;-83
2022/11/22 07:15:02;;;;;;;18.35;2.88;;;;;;;2.57;100.00;99337.81;5011377;28;20052;-83
2022/11/22 07:17:27;;;;;;;16.48;2.67;;;;;;;2.67;100.00;99344.47;5010825;28;20084;-83
2022/11/22 07:19:52;;;;;;;11.48;3.30;;;;;;;2.77;100.00;99343.44;4993504;28;20132;-79
2022/11/22 07:22:17;;;;;;;13.77;3.20;;;;;;;2.86;100.00;99344.19;5009804;28;20105;-79
2022/11/22 07:24:43;;;;;;;12.75;2.90;;;;;;;2.95;100.00;99346.56;4989132;28;20080;-79
2022/11/22 07:27:08;;;;;;;19.98;3.10;;;;;;;2.99;100.00;99338.81;5008793;28;20025;-79
2022/11/22 07:29:33;;;;;;;13.60;3.22;;;;;;;3.07;100.00;99342.06;5010054;28;20484;-79
2022/11/22 07:31:59;;;;;;;14.25;2.88;;;;;;;3.12;100.00;99347.13;5010696;28;20034;-79
2022/11/22 07:34:24;;;;;;;12.40;2.75;;;;;;;3.17;100.00;99342.75;5009134;28;20045;-79
2022/11/22 07:36:49;;;;;;;15.15;3.17;;;;;;;3.23;100.00;99339.25;5010834;28;20026;-79
2022/11/22 07:39:14;;;;;;;18.55;3.42;;;;;;;3.27;100.00;99351.13;5011709;28;20472;-79
2022/11/22 07:41:40;;;;;;;12.88;3.40;;;;;;;3.30;100.00;99351.91;5012363;28;20053;-79
2022/11/22 07:44:05;;;;;;;14.10;3.40;;;;;;;3.31;100.00;99348.47;5008930;28;20056;-79
2022/11/22 07:46:31;;;;;;;14.63;3.33;;;;;;;3.37;100.00;99352.63;5009350;28;20028;-79
2022/11/22 07:48:58;;;;;;;14.60;3.42;;;;;;;3.44;100.00;99354.22;5010110;28;20521;-81
2022/11/22 07:51:23;;;;;;;14.50;3.30;;;;;;;3.47;100.00;99357.56;5011305;28;20053;-80
2022/11/22 07:53:49;;;;;;;15.75;3.72;;;;;;;3.53;100.00;99346.38;5011862;28;20400;-80
2022/11/22 07:56:15;;;;;;;18.20;3.35;;;;;;;3.60;100.00;99350.50;5004296;28;20484;-80
2022/11/22 07:58:40;;;;;;;14.65;3.10;;;;;;;3.62;100.00;99346.16;5011356;28;20484;-80
2022/11/22 08:01:11;;;;;;;12.10;3.80;;;;;;;3.71;100.00;99356.25;5009798;28;20041;-80
2022/11/22 08:03:37;;;;;;;11.90;2.83;;;;;;;3.74;100.00;99355.34;5010408;28;20496;-80
2022/11/22 08:06:05;;;;;;;15.35;3.38;;;;;;;3.81;100.00;99359.47;5011854;28;20144;-80
2022/11/22 08:08:31;;;;;;;18.00;3.00;;;;;;;3.86;100.00;99350.81;5010608;28;20096;-80
2022/11/22 08:10:57;;;;;;;14.88;3.47;;;;;;;3.94;100.00;99353.22;5011818;28;20084;-80
2022/11/22 08:13:22;;;;;;;13.30;3.03;;;;;;;4.06;100.00;99358.09;4993605;28;20034;-81
2022/11/22 08:15:48;;;;;;;10.63;3.05;;;;;;;4.15;100.00;99346.78;5008511;28;20033;-81
2022/11/22 08:18:14;;;;;;;16.73;3.28;;;;;;;4.18;100.00;99346.72;5010275;28;20069;-80
2022/11/22 08:20:40;;;;;;;16.02;3.25;;;;;;;4.23;100.00;99352.59;5011719;28;20037;-80
2022/11/22 08:23:05;;;;;;;12.80;2.97;;;;;;;4.30;100.00;99356.69;5011337;28;20030;-80
2022/11/22 08:25:31;;;;;;;13.40;3.42;;;;;;;4.36;100.00;99351.44;5007930;28;20037;-80
2022/11/22 08:27:56;;;;;;;19.35;3.38;;;;;;;4.40;100.00;99349.66;5008423;28;20492;-80
2022/11/22 08:30:21;;;;;;;14.23;3.03;;;;;;;4.41;100.00;99349.63;5011574;28;20036;-80
2022/11/22 08:32:47;;;;;;;14.98;3.40;;;;;;;4.39;100.00;99346.25;5009703;28;20068;-80
2022/11/22 08:35:12;;;;;;;7.70;2.58;;;;;;;4.40;100.00;99355.63;5009949;28;20360;-80
2022/11/22 08:37:37;;;;;;;10.13;3.10;;;;;;;4.44;100.00;99361.50;4993789;28;20049;-80
2022/11/22 08:40:03;;;;;;;8.75;2.80;;;;;;;4.48;100.00;99355.44;5010934;28;20057;-80
2022/11/22 08:42:29;;;;;;;10.38;2.88;;;;;;;4.54;100.00;99361.28;5009834;28;20526;-80
2022/11/22 08:44:54;;;;;;;10.40;2.60;;;;;;;4.58;100.00;99356.91;5008759;28;20558;-80
2022/11/22 08:47:19;;;;;;;15.38;2.97;;;;;;;4.61;100.00;99367.13;5010183;28;20057;-80
2022/11/22 08:49:45;;;;;;;14.77;2.83;;;;;;;4.60;100.00;99368.84;5011634;28;20057;-80
2022/11/22 08:52:10;;;;;;;7.57;2.60;;;;;;;4.56;100.00;99364.66;5010399;28;20061;-80
2022/11/22 08:54:36;;;;;;;12.65;2.75;;;;;;;4.57;100.00;99366.31;5008150;28;20026;-80
2022/11/22 08:57:01;;;;;;;13.52;2.67;;;;;;;4.56;100.00;99361.25;5006211;28;20025;-80
2022/11/22 08:59:26;;;;;;;12.32;2.80;;;;;;;4.59;100.00;99364.59;5010883;28;20032;-80
2022/11/22 09:01:52;;;;;;;10.88;2.55;;;;;;;4.60;100.00;99363.72;5010777;28;20030;-80
2022/11/22 09:04:17;;;;;;;6.82;2.33;;;;;;;4.62;100.00;99373.94;5009340;28;20113;-80
2022/11/22 09:06:42;;;;;;;14.05;2.60;;;;;;;4.64;100.00;99367.88;5006917;28;20129;-80
2022/11/22 09:09:08;;;;;;;11.75;2.70;;;;;;;4.70;100.00;99372.88;5007789;28;20030;-80
2022/11/22 09:11:33;;;;;;;11.75;2.42;;;;;;;4.80;100.00;99378.63;5008641;28;20029;-80
2022/11/22 09:13:59;;;;;;;12.13;2.63;;;;;;;4.93;100.00;99376.59;5010433;28;20040;-80
2022/11/22 09:16:27;;;;;;;15.15;2.88;;;;;;;5.01;100.00;99377.28;5004682;28;20018;-80
2022/11/22 09:18:53;;;;;;;9.73;3.00;;;;;;;5.07;100.00;99385.66;5006206;28;20041;-80
2022/11/22 09:21:18;;;;;;;13.02;2.85;;;;;;;5.13;100.00;99387.22;5009862;28;20018;-80
2022/11/22 09:23:45;;;;;;;14.15;2.60;;;;;;;5.19;100.00;99384.50;5008800;28;20036;-80
2022/11/22 09:26:23;;;;;;;12.23;2.80;;;;;;;5.21;100.00;99377.59;5007869;28;20096;-81
2022/11/22 09:28:48;;;;;;;13.30;2.80;;;;;;;5.21;100.00;99387.03;5006962;28;20080;-80
2022/11/22 09:31:17;;;;;;;10.77;3.10;;;;;;;5.18;100.00;99397.41;5009016;28;20037;-80
2022/11/22 09:33:45;;;;;;;10.18;2.88;;;;;;;5.11;100.00;99383.88;5010420;28;20480;-80
2022/11/22 09:36:19;;;;;;;11.88;3.17;;;;;;;5.14;100.00;99386.34;5008988;28;20072;-80
2022/11/22 09:38:45;;;;;;;11.48;2.70;;;;;;;5.18;100.00;99372.56;5000985;28;20021;-80
2022/11/22 09:41:38;;;;;;;13.40;3.40;;;;;;;5.30;100.00;99376.53;5011112;28;20028;-80
2022/11/22 09:44:28;;;;;;;7.47;3.20;;;;;;;5.39;100.00;99389.16;5008747;28;20038;-80
2022/11/22 09:47:20;;;;;;;12.27;3.20;;;;;;;5.47;100.00;99375.19;5010080;28;20049;-80
2022/11/22 09:50:01;;;;;;;9.98;2.60;;;;;;;5.48;100.00;99379.47;5013489;28;20029;-80
2022/11/22 09:52:33;;;;;;;9.20;3.33;;;;;;;5.60;100.00;99373.13;4993748;28;20117;-80
2022/11/22 09:55:14;;;;;;;8.15;2.80;;;;;;;5.71;100.00;99378.00;4997883;28;20419;-80
2022/11/22 09:57:46;;;;;;;9.55;3.30;;;;;;;5.75;100.00;99370.16;4996747;28;20030;-81
2022/11/22 10:00:26;;;;;;;10.05;2.97;;;;;;;5.78;100.00;99380.38;5014374;28;20030;-80
2022/11/22 10:03:03;;;;;;;11.10;2.78;;;;;;;5.80;100.00;99388.84;4999759;28;20547;-80
2022/11/22 10:05:40;;;;;;;6.50;2.70;;;;;;;5.87;100.00;99387.84;5013692;28;20116;-80
2022/11/22 10:08:36;;;;;;;12.10;3.15;;;;;;;5.90;100.00;99390.34;5010582;28;20411;-80
2022/11/22 10:11:10;;;;;;;9.70;3.00;;;;;;;5.88;100.00;99384.38;5008765;28;20079;-80
2022/11/22 10:13:45;;;;;;;8.27;2.53;;;;;;;5.86;100.00;99391.28;5013908;28;20028;-80
2022/11/22 10:16:16;;;;;;;10.65;2.60;;;;;;;5.90;100.00;99394.63;5010545;28;20072;-80
2022/11/22 10:19:05;;;;;;;8.70;2.88;;;;;;;5.89;100.00;99392.94;5013200;28;20028;-80
2022/11/22 10:21:31;;;;;;;8.35;2.80;;;;;;;5.85;100.00;99389.59;5010745;28;20045;-80
2022/11/22 10:23:56;;;;;;;7.50;2.13;;;;;;;5.82;100.00;99392.25;5010325;28;20026;-80
2022/11/22 10:26:35;;;;;;;5.80;2.65;;;;;;;5.80;100.00;99388.84;4998348;28;20027;-80
2022/11/22 10:29:07;;;;;;;5.95;2.38;;;;;;;5.77;100.00;99381.25;5011038;28;20029;-81
2022/11/22 10:31:43;;;;;;;7.15;2.33;;;;;;;5.79;100.00;99376.06;5010057;28;20034;-81
2022/11/22 10:34:27;;;;;;;8.35;2.22;;;;;;;5.80;100.00;99380.34;5009564;28;20057;-82
2022/11/22 10:37:03;;;;;;;8.93;2.75;;;;;;;5.78;100.00;99376.94;5015589;28;20029;-82
2022/11/22 10:39:47;;;;;;;7.28;2.28;;;;;;;5.84;100.00;99376.78;5008370;28;20028;-82
2022/11/22 10:42:19;;;;;;;8.32;2.40;;;;;;;5.88;100.00;99368.13;5009908;28;20025;-82
2022/11/22 10:44:53;;;;;;;7.10;2.63;;;;;;;5.89;100.00;99362.09;5001869;28;20110;-82
2022/11/22 10:47:55;;;;;;;6.25;2.30;;;;;;;5.96;100.00;99363.59;5008767;28;20037;-82
2022/11/22 10:50:28;;;;;;;6.63;2.50;;;;;;;5.98;100.00;99364.41;5011604;28;20523;-82
2022/11/22 10:53:02;;;;;;;5.88;2.30;;;;;;;6.09;100.00;99367.50;5013318;28;20468;-81
2022/11/22 10:55:54;;;;;;;5.85;2.40;;;;;;;6.16;100.00;99363.84;5013373;28;20034;-82
2022/11/22 10:58:52;;;;;;;7.38;2.20;;;;;;;6.22;100.00;99358.53;5011860;28;20116;-82
2022/11/22 11:01:35;;;;;;;7.03;2.45;;;;;;;6.34;100.00;99357.34;4981374;28;20404;-81
2022/11/22 11:04:02;;;;;;;5.25;2.30;;;;;;;6.38;100.00;99356.34;5012247;28;20084;-82
2022/11/22 11:06:37;;;;;;;5.28;2.45;;;;;;;6.40;100.00;99351.16;5010733;28;20046;-82
2022/11/22 11:09:11;;;;;;;6.78;2.78;;;;;;;6.46;100.00;99340.66;4988130;28;20112;-81
2022/11/22 11:11:38;;;;;;;;;;;;;;;6.58;100.00;99340.28;5008411;28;20435;-81
2022/11/22 11:14:30;;;;;;;5.07;2.55;;;;;;;6.65;100.00;99341.78;5008731;28;19921;-80
2022/11/22 11:16:56;;;;;;;9.13;3.00;;;;;;;6.66;100.00;99339.16;5012648;28;20033;-80
2022/11/22 11:19:24;;;;;;;9.40;2.72;;;;;;;6.68;100.00;99331.38;4992037;28;20076;-81
2022/11/22 11:21:56;;;;;;;6.25;2.35;;;;;;;6.71;100.00;99332.13;5010689;28;20045;-80
2022/11/22 11:24:22;;;;;;;6.28;2.20;;;;;;;6.75;100.00;99325.16;5011279;28;20033;-80
2022/11/22 11:26:54;;;;;;;5.32;2.10;;;;;;;6.73;100.00;99324.34;5012595;28;20157;-80
2022/11/22 11:29:31;;;;;;;4.07;1.98;;;;;;;6.77;100.00;99313.03;5012303;28;20156;-80
2022/11/22 11:32:09;;;;;;;5.32;2.13;;;;;;;6.79;100.00;99319.00;5012381;28;20057;-80
2022/11/22 11:34:35;;;;;;;6.03;1.98;;;;;;;6.78;100.00;99316.47;5001756;28;20085;-80
2022/11/22 11:37:02;;;;;;;5.05;1.80;;;;;;;6.72;100.00;99320.09;5012393;28;20726;-80
2022/11/22 11:39:34;;;;;;;3.17;1.85;;;;;;;6.65;100.00;99321.19;5010134;28;20025;-80
2022/11/22 11:42:19;;;;;;;3.63;1.65;;;;;;;6.61;100.00;99323.03;4994645;28;20072;-80
2022/11/22 11:44:44;;;;;;;3.20;1.70;;;;;;;6.63;100.00;99317.78;5012582;28;20030;-80